sensor_id;sensor_type;location;lat;lon;timestamp;P1;durP1;ratioP1;P2;durP2;ratioP2
36355;SDS011;22384;54.302;18.596;2023-05-01T00:01:27;6.03;;;3.72;;
36355;SDS011;22384;54.302;18.596;2023-05-01T00:03:53;10.07;;;4.15;;
36355;SDS011;22384;54.302;18.596;2023-05-01T00:06:19;12.30;;;4.53;;
36355;SDS011;22384;54.302;18.596;2023-05-01T00:08:45;10.30;;;4.32;;
36355;SDS011;22384;54.302;18.596;2023-05-01T00:11:11;9.75;;;3.70;;
36355;SDS011;22384;54.302;18.596;2023-05-01T00:13:37;8.65;;;3.85;;
36355;SDS011;22384;54.302;18.596;2023-05-01T00:16:07;12.80;;;5.53;;
36355;SDS011;22384;54.302;18.596;2023-05-01T00:18:33;8.90;;;4.38;;
36355;SDS011;22384;54.302;18.596;2023-05-01T00:20:59;14.77;;;4.22;;
36355;SDS011;22384;54.302;18.596;2023-05-01T00:23:25;12.30;;;4.50;;
36355;SDS011;22384;54.302;18.596;2023-05-01T00:25:51;10.80;;;4.00;;
36355;SDS011;22384;54.302;18.596;2023-05-01T00:28:17;11.60;;;3.90;;
36355;SDS011;22384;54.302;18.596;2023-05-01T00:30:44;13.48;;;4.10;;
36355;SDS011;22384;54.302;18.596;2023-05-01T00:33:10;11.98;;;3.50;;
36355;SDS011;22384;54.302;18.596;2023-05-01T00:35:37;11.55;;;4.00;;
36355;SDS011;22384;54.302;18.596;2023-05-01T00:38:03;10.68;;;3.60;;
36355;SDS011;22384;54.302;18.596;2023-05-01T00:40:29;8.10;;;3.58;;
36355;SDS011;22384;54.302;18.596;2023-05-01T00:42:55;10.07;;;3.70;;
36355;SDS011;22384;54.302;18.596;2023-05-01T00:45:21;14.85;;;4.25;;
36355;SDS011;22384;54.302;18.596;2023-05-01T00:47:47;14.52;;;3.80;;
36355;SDS011;22384;54.302;18.596;2023-05-01T00:50:13;17.23;;;4.20;;
36355;SDS011;22384;54.302;18.596;2023-05-01T00:52:40;13.25;;;4.13;;
36355;SDS011;22384;54.302;18.596;2023-05-01T00:55:06;7.95;;;3.30;;
36355;SDS011;22384;54.302;18.596;2023-05-01T00:57:32;8.85;;;3.60;;
36355;SDS011;22384;54.302;18.596;2023-05-01T00:59:59;13.00;;;3.17;;
36355;SDS011;22384;54.302;18.596;2023-05-01T01:02:25;11.98;;;4.25;;
36355;SDS011;22384;54.302;18.596;2023-05-01T01:04:51;7.75;;;3.55;;
36355;SDS011;22384;54.302;18.596;2023-05-01T01:07:39;13.45;;;3.67;;
36355;SDS011;22384;54.302;18.596;2023-05-01T01:17:52;13.93;;;3.70;;
36355;SDS011;22384;54.302;18.596;2023-05-01T01:33:16;11.32;;;4.55;;
36355;SDS011;22384;54.302;18.596;2023-05-01T01:35:54;13.57;;;4.72;;
36355;SDS011;22384;54.302;18.596;2023-05-01T01:38:28;13.75;;;5.72;;
36355;SDS011;22384;54.302;18.596;2023-05-01T01:41:05;16.55;;;7.13;;
36355;SDS011;22384;54.302;18.596;2023-05-01T01:43:34;16.13;;;7.07;;
36355;SDS011;22384;54.302;18.596;2023-05-01T01:46:04;24.77;;;9.45;;
36355;SDS011;22384;54.302;18.596;2023-05-01T01:48:30;27.52;;;8.30;;
36355;SDS011;22384;54.302;18.596;2023-05-01T01:50:58;19.88;;;8.48;;
36355;SDS011;22384;54.302;18.596;2023-05-01T01:53:27;23.85;;;8.65;;
36355;SDS011;22384;54.302;18.596;2023-05-01T01:55:54;15.85;;;7.07;;
36355;SDS011;22384;54.302;18.596;2023-05-01T01:58:21;20.20;;;6.15;;
36355;SDS011;22384;54.302;18.596;2023-05-01T02:00:50;17.70;;;6.03;;
36355;SDS011;22384;54.302;18.596;2023-05-01T02:03:17;15.25;;;5.28;;
36355;SDS011;22384;54.302;18.596;2023-05-01T02:05:44;9.52;;;4.80;;
36355;SDS011;22384;54.302;18.596;2023-05-01T02:08:11;16.83;;;5.72;;
36355;SDS011;22384;54.302;18.596;2023-05-01T02:10:39;10.82;;;4.40;;
36355;SDS011;22384;54.302;18.596;2023-05-01T02:13:06;16.38;;;5.78;;
36355;SDS011;22384;54.302;18.596;2023-05-01T02:15:32;12.05;;;4.90;;
36355;SDS011;22384;54.302;18.596;2023-05-01T02:18:01;13.00;;;4.93;;
36355;SDS011;22384;54.302;18.596;2023-05-01T02:20:29;11.80;;;4.35;;
36355;SDS011;22384;54.302;18.596;2023-05-01T02:22:55;13.75;;;4.65;;
36355;SDS011;22384;54.302;18.596;2023-05-01T02:25:22;12.30;;;4.15;;
36355;SDS011;22384;54.302;18.596;2023-05-01T02:27:55;8.23;;;3.35;;
36355;SDS011;22384;54.302;18.596;2023-05-01T02:30:22;7.88;;;3.40;;
36355;SDS011;22384;54.302;18.596;2023-05-01T02:32:48;10.27;;;3.63;;
36355;SDS011;22384;54.302;18.596;2023-05-01T02:35:14;4.80;;;2.97;;
36355;SDS011;22384;54.302;18.596;2023-05-01T02:37:41;12.45;;;3.78;;
36355;SDS011;22384;54.302;18.596;2023-05-01T02:40:08;8.90;;;3.53;;
36355;SDS011;22384;54.302;18.596;2023-05-01T02:42:36;10.27;;;3.50;;
36355;SDS011;22384;54.302;18.596;2023-05-01T02:45:04;9.60;;;3.55;;
36355;SDS011;22384;54.302;18.596;2023-05-01T02:47:31;10.80;;;3.78;;
36355;SDS011;22384;54.302;18.596;2023-05-01T02:49:58;10.43;;;3.85;;
36355;SDS011;22384;54.302;18.596;2023-05-01T02:52:25;12.52;;;3.90;;
36355;SDS011;22384;54.302;18.596;2023-05-01T02:54:51;10.45;;;3.90;;
36355;SDS011;22384;54.302;18.596;2023-05-01T02:57:17;10.88;;;3.60;;
36355;SDS011;22384;54.302;18.596;2023-05-01T02:59:44;8.50;;;3.65;;
36355;SDS011;22384;54.302;18.596;2023-05-01T03:02:10;10.35;;;3.75;;
36355;SDS011;22384;54.302;18.596;2023-05-01T03:04:36;13.90;;;4.30;;
36355;SDS011;22384;54.302;18.596;2023-05-01T03:07:02;9.93;;;3.90;;
36355;SDS011;22384;54.302;18.596;2023-05-01T03:09:29;8.68;;;3.65;;
36355;SDS011;22384;54.302;18.596;2023-05-01T03:11:58;12.52;;;3.45;;
36355;SDS011;22384;54.302;18.596;2023-05-01T03:14:25;12.07;;;3.83;;
36355;SDS011;22384;54.302;18.596;2023-05-01T03:16:52;12.82;;;4.03;;
36355;SDS011;22384;54.302;18.596;2023-05-01T03:19:18;10.93;;;3.80;;
36355;SDS011;22384;54.302;18.596;2023-05-01T03:21:44;8.70;;;3.78;;
36355;SDS011;22384;54.302;18.596;2023-05-01T03:24:10;9.82;;;4.05;;
36355;SDS011;22384;54.302;18.596;2023-05-01T03:26:37;9.88;;;3.95;;
36355;SDS011;22384;54.302;18.596;2023-05-01T03:29:03;9.98;;;4.97;;
36355;SDS011;22384;54.302;18.596;2023-05-01T03:31:29;11.38;;;4.10;;
36355;SDS011;22384;54.302;18.596;2023-05-01T03:33:55;12.45;;;3.95;;
36355;SDS011;22384;54.302;18.596;2023-05-01T03:36:21;14.82;;;4.13;;
36355;SDS011;22384;54.302;18.596;2023-05-01T03:38:47;11.82;;;4.15;;
36355;SDS011;22384;54.302;18.596;2023-05-01T03:41:13;7.93;;;4.10;;
36355;SDS011;22384;54.302;18.596;2023-05-01T03:43:39;10.80;;;4.22;;
36355;SDS011;22384;54.302;18.596;2023-05-01T03:46:05;13.07;;;4.32;;
36355;SDS011;22384;54.302;18.596;2023-05-01T03:48:31;9.38;;;3.50;;
36355;SDS011;22384;54.302;18.596;2023-05-01T03:50:57;10.73;;;4.10;;
36355;SDS011;22384;54.302;18.596;2023-05-01T03:53:23;8.77;;;3.90;;
36355;SDS011;22384;54.302;18.596;2023-05-01T03:55:49;8.23;;;3.85;;
36355;SDS011;22384;54.302;18.596;2023-05-01T03:58:15;7.65;;;3.95;;
36355;SDS011;22384;54.302;18.596;2023-05-01T04:00:41;17.30;;;4.57;;
36355;SDS011;22384;54.302;18.596;2023-05-01T04:03:08;10.98;;;3.92;;
36355;SDS011;22384;54.302;18.596;2023-05-01T04:05:34;8.77;;;4.00;;
36355;SDS011;22384;54.302;18.596;2023-05-01T04:08:00;8.80;;;3.83;;
36355;SDS011;22384;54.302;18.596;2023-05-01T04:10:26;13.73;;;4.68;;
36355;SDS011;22384;54.302;18.596;2023-05-01T04:12:52;11.98;;;4.50;;
36355;SDS011;22384;54.302;18.596;2023-05-01T04:15:18;11.00;;;4.20;;
36355;SDS011;22384;54.302;18.596;2023-05-01T04:17:46;12.10;;;4.28;;
36355;SDS011;22384;54.302;18.596;2023-05-01T04:20:12;10.55;;;4.75;;
36355;SDS011;22384;54.302;18.596;2023-05-01T04:22:40;8.45;;;4.40;;
36355;SDS011;22384;54.302;18.596;2023-05-01T04:25:06;8.15;;;4.57;;
36355;SDS011;22384;54.302;18.596;2023-05-01T04:27:32;11.88;;;4.38;;
36355;SDS011;22384;54.302;18.596;2023-05-01T04:29:58;9.48;;;3.55;;
36355;SDS011;22384;54.302;18.596;2023-05-01T04:32:25;8.98;;;3.22;;
36355;SDS011;22384;54.302;18.596;2023-05-01T04:34:51;10.75;;;4.25;;
36355;SDS011;22384;54.302;18.596;2023-05-01T04:37:17;10.15;;;4.47;;
36355;SDS011;22384;54.302;18.596;2023-05-01T04:39:43;14.55;;;5.70;;
36355;SDS011;22384;54.302;18.596;2023-05-01T04:42:09;12.65;;;5.13;;
36355;SDS011;22384;54.302;18.596;2023-05-01T04:44:35;17.58;;;5.45;;
36355;SDS011;22384;54.302;18.596;2023-05-01T04:47:02;12.68;;;4.90;;
36355;SDS011;22384;54.302;18.596;2023-05-01T04:49:28;12.63;;;3.50;;
36355;SDS011;22384;54.302;18.596;2023-05-01T04:51:54;11.75;;;3.90;;
36355;SDS011;22384;54.302;18.596;2023-05-01T04:54:21;8.90;;;3.72;;
36355;SDS011;22384;54.302;18.596;2023-05-01T04:56:48;7.63;;;3.80;;
36355;SDS011;22384;54.302;18.596;2023-05-01T04:59:14;14.25;;;3.90;;
36355;SDS011;22384;54.302;18.596;2023-05-01T05:01:40;11.63;;;3.25;;
36355;SDS011;22384;54.302;18.596;2023-05-01T05:04:06;10.00;;;3.53;;
36355;SDS011;22384;54.302;18.596;2023-05-01T05:06:32;10.65;;;3.38;;
36355;SDS011;22384;54.302;18.596;2023-05-01T05:08:58;10.75;;;3.38;;
36355;SDS011;22384;54.302;18.596;2023-05-01T05:11:24;11.90;;;3.78;;
36355;SDS011;22384;54.302;18.596;2023-05-01T05:13:50;7.95;;;3.13;;
36355;SDS011;22384;54.302;18.596;2023-05-01T05:16:17;7.68;;;2.92;;
36355;SDS011;22384;54.302;18.596;2023-05-01T05:18:42;11.45;;;3.05;;
36355;SDS011;22384;54.302;18.596;2023-05-01T05:21:08;9.07;;;3.33;;
36355;SDS011;22384;54.302;18.596;2023-05-01T05:23:35;8.85;;;3.17;;
36355;SDS011;22384;54.302;18.596;2023-05-01T05:26:01;16.08;;;3.30;;
36355;SDS011;22384;54.302;18.596;2023-05-01T05:28:27;12.23;;;3.78;;
36355;SDS011;22384;54.302;18.596;2023-05-01T05:30:54;13.35;;;2.90;;
36355;SDS011;22384;54.302;18.596;2023-05-01T05:33:20;5.95;;;2.97;;
36355;SDS011;22384;54.302;18.596;2023-05-01T05:35:49;8.65;;;2.58;;
36355;SDS011;22384;54.302;18.596;2023-05-01T05:38:15;5.75;;;2.65;;
36355;SDS011;22384;54.302;18.596;2023-05-01T05:40:41;10.32;;;3.33;;
36355;SDS011;22384;54.302;18.596;2023-05-01T05:43:07;8.50;;;3.13;;
36355;SDS011;22384;54.302;18.596;2023-05-01T05:45:34;12.00;;;2.92;;
36355;SDS011;22384;54.302;18.596;2023-05-01T05:48:00;9.07;;;3.20;;
36355;SDS011;22384;54.302;18.596;2023-05-01T05:50:26;6.95;;;3.05;;
36355;SDS011;22384;54.302;18.596;2023-05-01T05:52:53;6.03;;;2.55;;
36355;SDS011;22384;54.302;18.596;2023-05-01T05:55:20;5.80;;;2.67;;
36355;SDS011;22384;54.302;18.596;2023-05-01T05:57:46;8.13;;;3.20;;
36355;SDS011;22384;54.302;18.596;2023-05-01T06:00:12;14.73;;;2.78;;
36355;SDS011;22384;54.302;18.596;2023-05-01T06:02:38;7.88;;;2.65;;
36355;SDS011;22384;54.302;18.596;2023-05-01T06:05:05;5.57;;;2.60;;
36355;SDS011;22384;54.302;18.596;2023-05-01T06:07:31;8.65;;;2.50;;
36355;SDS011;22384;54.302;18.596;2023-05-01T06:09:57;6.80;;;3.00;;
36355;SDS011;22384;54.302;18.596;2023-05-01T06:12:28;9.15;;;3.05;;
36355;SDS011;22384;54.302;18.596;2023-05-01T06:14:54;14.13;;;2.70;;
36355;SDS011;22384;54.302;18.596;2023-05-01T06:17:20;10.15;;;3.08;;
36355;SDS011;22384;54.302;18.596;2023-05-01T06:19:46;7.45;;;2.78;;
36355;SDS011;22384;54.302;18.596;2023-05-01T06:22:12;10.98;;;3.70;;
36355;SDS011;22384;54.302;18.596;2023-05-01T06:24:38;7.60;;;3.08;;
36355;SDS011;22384;54.302;18.596;2023-05-01T06:27:04;8.77;;;3.03;;
36355;SDS011;22384;54.302;18.596;2023-05-01T06:29:30;8.65;;;2.83;;
36355;SDS011;22384;54.302;18.596;2023-05-01T06:31:56;5.55;;;1.98;;
36355;SDS011;22384;54.302;18.596;2023-05-01T06:34:22;5.93;;;1.90;;
36355;SDS011;22384;54.302;18.596;2023-05-01T06:36:48;6.68;;;2.20;;
36355;SDS011;22384;54.302;18.596;2023-05-01T06:39:14;6.13;;;1.70;;
36355;SDS011;22384;54.302;18.596;2023-05-01T06:41:40;5.60;;;1.70;;
36355;SDS011;22384;54.302;18.596;2023-05-01T06:44:07;12.00;;;2.00;;
36355;SDS011;22384;54.302;18.596;2023-05-01T06:46:33;7.35;;;2.00;;
36355;SDS011;22384;54.302;18.596;2023-05-01T06:48:59;4.55;;;1.58;;
36355;SDS011;22384;54.302;18.596;2023-05-01T06:51:25;5.95;;;2.08;;
36355;SDS011;22384;54.302;18.596;2023-05-01T06:53:51;4.45;;;2.03;;
36355;SDS011;22384;54.302;18.596;2023-05-01T06:56:17;4.93;;;1.80;;
36355;SDS011;22384;54.302;18.596;2023-05-01T06:58:43;4.07;;;1.58;;
36355;SDS011;22384;54.302;18.596;2023-05-01T07:01:09;7.20;;;2.00;;
36355;SDS011;22384;54.302;18.596;2023-05-01T07:03:35;6.38;;;2.08;;
36355;SDS011;22384;54.302;18.596;2023-05-01T07:06:01;6.35;;;2.00;;
36355;SDS011;22384;54.302;18.596;2023-05-01T07:08:27;7.07;;;1.83;;
36355;SDS011;22384;54.302;18.596;2023-05-01T07:10:53;5.45;;;1.90;;
36355;SDS011;22384;54.302;18.596;2023-05-01T07:13:20;5.05;;;1.88;;
36355;SDS011;22384;54.302;18.596;2023-05-01T07:15:46;7.90;;;1.65;;
36355;SDS011;22384;54.302;18.596;2023-05-01T07:18:13;7.93;;;2.15;;
36355;SDS011;22384;54.302;18.596;2023-05-01T07:20:39;4.72;;;1.73;;
36355;SDS011;22384;54.302;18.596;2023-05-01T07:23:05;7.28;;;1.90;;
36355;SDS011;22384;54.302;18.596;2023-05-01T07:25:31;5.85;;;1.80;;
36355;SDS011;22384;54.302;18.596;2023-05-01T07:27:57;4.28;;;1.73;;
36355;SDS011;22384;54.302;18.596;2023-05-01T07:30:25;6.22;;;1.95;;
36355;SDS011;22384;54.302;18.596;2023-05-01T07:32:54;11.55;;;2.20;;
36355;SDS011;22384;54.302;18.596;2023-05-01T07:35:21;3.58;;;2.08;;
36355;SDS011;22384;54.302;18.596;2023-05-01T07:37:48;8.90;;;2.22;;
36355;SDS011;22384;54.302;18.596;2023-05-01T07:40:17;5.10;;;1.75;;
36355;SDS011;22384;54.302;18.596;2023-05-01T07:42:43;8.00;;;2.15;;
36355;SDS011;22384;54.302;18.596;2023-05-01T07:45:09;5.75;;;2.15;;
36355;SDS011;22384;54.302;18.596;2023-05-01T07:47:35;4.25;;;1.90;;
36355;SDS011;22384;54.302;18.596;2023-05-01T07:50:02;5.32;;;1.92;;
36355;SDS011;22384;54.302;18.596;2023-05-01T07:52:28;5.18;;;2.25;;
36355;SDS011;22384;54.302;18.596;2023-05-01T07:54:54;4.68;;;2.13;;
36355;SDS011;22384;54.302;18.596;2023-05-01T07:57:20;11.65;;;2.80;;
36355;SDS011;22384;54.302;18.596;2023-05-01T07:59:52;8.63;;;2.25;;
36355;SDS011;22384;54.302;18.596;2023-05-01T08:02:18;7.53;;;2.28;;
36355;SDS011;22384;54.302;18.596;2023-05-01T08:04:44;8.95;;;2.10;;
36355;SDS011;22384;54.302;18.596;2023-05-01T08:07:12;6.82;;;2.10;;
36355;SDS011;22384;54.302;18.596;2023-05-01T08:09:38;5.07;;;2.28;;
36355;SDS011;22384;54.302;18.596;2023-05-01T08:12:04;10.40;;;2.40;;
36355;SDS011;22384;54.302;18.596;2023-05-01T08:14:30;9.73;;;2.28;;
36355;SDS011;22384;54.302;18.596;2023-05-01T08:16:56;5.32;;;2.10;;
36355;SDS011;22384;54.302;18.596;2023-05-01T08:19:22;6.43;;;2.22;;
36355;SDS011;22384;54.302;18.596;2023-05-01T08:21:48;5.55;;;2.17;;
36355;SDS011;22384;54.302;18.596;2023-05-01T08:24:14;10.45;;;2.55;;
36355;SDS011;22384;54.302;18.596;2023-05-01T08:26:40;4.75;;;2.05;;
36355;SDS011;22384;54.302;18.596;2023-05-01T08:29:06;7.53;;;2.30;;
36355;SDS011;22384;54.302;18.596;2023-05-01T08:31:32;10.02;;;2.42;;
36355;SDS011;22384;54.302;18.596;2023-05-01T08:34:01;6.32;;;2.70;;
36355;SDS011;22384;54.302;18.596;2023-05-01T08:36:27;6.45;;;2.38;;
36355;SDS011;22384;54.302;18.596;2023-05-01T08:38:55;4.03;;;2.17;;
36355;SDS011;22384;54.302;18.596;2023-05-01T08:41:21;11.98;;;2.58;;
36355;SDS011;22384;54.302;18.596;2023-05-01T08:43:47;4.35;;;2.20;;
36355;SDS011;22384;54.302;18.596;2023-05-01T08:46:14;9.98;;;2.28;;
36355;SDS011;22384;54.302;18.596;2023-05-01T08:48:45;7.25;;;2.97;;
36355;SDS011;22384;54.302;18.596;2023-05-01T08:51:12;7.75;;;2.60;;
36355;SDS011;22384;54.302;18.596;2023-05-01T08:53:40;6.32;;;2.13;;
36355;SDS011;22384;54.302;18.596;2023-05-01T08:56:07;5.78;;;2.10;;
36355;SDS011;22384;54.302;18.596;2023-05-01T08:58:34;4.20;;;2.28;;
36355;SDS011;22384;54.302;18.596;2023-05-01T09:01:00;6.72;;;2.13;;
36355;SDS011;22384;54.302;18.596;2023-05-01T09:03:27;8.02;;;2.25;;
36355;SDS011;22384;54.302;18.596;2023-05-01T09:05:53;6.45;;;1.80;;
36355;SDS011;22384;54.302;18.596;2023-05-01T09:08:19;6.88;;;2.25;;
36355;SDS011;22384;54.302;18.596;2023-05-01T09:10:46;5.80;;;2.67;;
36355;SDS011;22384;54.302;18.596;2023-05-01T09:13:13;8.75;;;2.33;;
36355;SDS011;22384;54.302;18.596;2023-05-01T09:15:39;9.15;;;2.40;;
36355;SDS011;22384;54.302;18.596;2023-05-01T09:18:06;8.50;;;2.35;;
36355;SDS011;22384;54.302;18.596;2023-05-01T09:20:33;8.63;;;2.20;;
36355;SDS011;22384;54.302;18.596;2023-05-01T09:23:01;6.85;;;1.90;;
36355;SDS011;22384;54.302;18.596;2023-05-01T09:25:27;6.07;;;1.98;;
36355;SDS011;22384;54.302;18.596;2023-05-01T09:27:53;10.73;;;2.20;;
36355;SDS011;22384;54.302;18.596;2023-05-01T09:30:30;8.23;;;2.20;;
36355;SDS011;22384;54.302;18.596;2023-05-01T09:35:53;4.95;;;2.35;;
36355;SDS011;22384;54.302;18.596;2023-05-01T09:38:20;7.15;;;2.25;;
36355;SDS011;22384;54.302;18.596;2023-05-01T09:40:46;8.35;;;2.45;;
36355;SDS011;22384;54.302;18.596;2023-05-01T09:43:13;6.32;;;2.10;;
36355;SDS011;22384;54.302;18.596;2023-05-01T09:45:41;4.80;;;2.40;;
36355;SDS011;22384;54.302;18.596;2023-05-01T09:48:10;11.45;;;2.30;;
36355;SDS011;22384;54.302;18.596;2023-05-01T09:50:37;8.07;;;2.27;;
36355;SDS011;22384;54.302;18.596;2023-05-01T09:53:06;6.07;;;1.90;;
36355;SDS011;22384;54.302;18.596;2023-05-01T09:55:32;10.18;;;2.30;;
36355;SDS011;22384;54.302;18.596;2023-05-01T09:57:59;7.75;;;2.15;;
36355;SDS011;22384;54.302;18.596;2023-05-01T10:00:25;3.85;;;2.22;;
36355;SDS011;22384;54.302;18.596;2023-05-01T10:02:51;4.72;;;2.30;;
36355;SDS011;22384;54.302;18.596;2023-05-01T10:05:17;4.22;;;2.08;;
36355;SDS011;22384;54.302;18.596;2023-05-01T10:07:54;4.60;;;2.03;;
36355;SDS011;22384;54.302;18.596;2023-05-01T10:10:23;8.52;;;2.05;;
36355;SDS011;22384;54.302;18.596;2023-05-01T10:12:49;8.23;;;2.00;;
36355;SDS011;22384;54.302;18.596;2023-05-01T10:15:15;5.65;;;1.90;;
36355;SDS011;22384;54.302;18.596;2023-05-01T10:17:43;5.30;;;2.17;;
36355;SDS011;22384;54.302;18.596;2023-05-01T10:20:10;5.88;;;1.98;;
36355;SDS011;22384;54.302;18.596;2023-05-01T10:22:36;8.93;;;2.30;;
36355;SDS011;22384;54.302;18.596;2023-05-01T10:25:02;7.15;;;2.30;;
36355;SDS011;22384;54.302;18.596;2023-05-01T10:27:29;4.65;;;1.90;;
36355;SDS011;22384;54.302;18.596;2023-05-01T10:29:55;6.78;;;2.08;;
36355;SDS011;22384;54.302;18.596;2023-05-01T10:32:21;7.15;;;2.00;;
36355;SDS011;22384;54.302;18.596;2023-05-01T10:34:51;7.20;;;2.58;;
36355;SDS011;22384;54.302;18.596;2023-05-01T10:37:21;8.20;;;2.50;;
36355;SDS011;22384;54.302;18.596;2023-05-01T10:39:48;3.72;;;1.90;;
36355;SDS011;22384;54.302;18.596;2023-05-01T10:42:14;5.85;;;2.00;;
36355;SDS011;22384;54.302;18.596;2023-05-01T10:44:40;8.25;;;2.35;;
36355;SDS011;22384;54.302;18.596;2023-05-01T10:55:32;4.85;;;2.00;;
36355;SDS011;22384;54.302;18.596;2023-05-01T10:57:58;5.72;;;2.30;;
36355;SDS011;22384;54.302;18.596;2023-05-01T11:00:24;9.13;;;2.70;;
36355;SDS011;22384;54.302;18.596;2023-05-01T11:02:50;3.42;;;1.95;;
36355;SDS011;22384;54.302;18.596;2023-05-01T11:05:16;6.60;;;2.35;;
36355;SDS011;22384;54.302;18.596;2023-05-01T11:07:42;9.20;;;2.38;;
36355;SDS011;22384;54.302;18.596;2023-05-01T11:10:24;7.65;;;2.55;;
36355;SDS011;22384;54.302;18.596;2023-05-01T11:12:51;4.43;;;2.03;;
36355;SDS011;22384;54.302;18.596;2023-05-01T11:15:26;6.50;;;1.98;;
36355;SDS011;22384;54.302;18.596;2023-05-01T11:17:53;5.30;;;2.10;;
36355;SDS011;22384;54.302;18.596;2023-05-01T11:22:53;5.00;;;2.25;;
36355;SDS011;22384;54.302;18.596;2023-05-01T11:27:53;5.72;;;2.33;;
36355;SDS011;22384;54.302;18.596;2023-05-01T11:30:19;5.38;;;2.15;;
36355;SDS011;22384;54.302;18.596;2023-05-01T11:32:46;6.63;;;1.90;;
36355;SDS011;22384;54.302;18.596;2023-05-01T11:37:42;3.78;;;2.38;;
36355;SDS011;22384;54.302;18.596;2023-05-01T11:40:24;3.00;;;2.10;;
36355;SDS011;22384;54.302;18.596;2023-05-01T11:42:51;5.03;;;2.00;;
36355;SDS011;22384;54.302;18.596;2023-05-01T11:45:17;4.88;;;2.00;;
36355;SDS011;22384;54.302;18.596;2023-05-01T11:47:44;6.07;;;2.10;;
36355;SDS011;22384;54.302;18.596;2023-05-01T11:50:10;4.10;;;2.05;;
36355;SDS011;22384;54.302;18.596;2023-05-01T11:55:13;5.57;;;1.60;;
36355;SDS011;22384;54.302;18.596;2023-05-01T11:57:46;6.47;;;2.05;;
36355;SDS011;22384;54.302;18.596;2023-05-01T12:00:13;3.53;;;1.73;;
36355;SDS011;22384;54.302;18.596;2023-05-01T12:02:43;5.80;;;1.63;;
36355;SDS011;22384;54.302;18.596;2023-05-01T12:05:21;9.30;;;1.55;;
36355;SDS011;22384;54.302;18.596;2023-05-01T12:07:47;3.38;;;1.63;;
36355;SDS011;22384;54.302;18.596;2023-05-01T12:10:14;4.63;;;1.90;;
36355;SDS011;22384;54.302;18.596;2023-05-01T12:12:40;6.18;;;1.52;;
36355;SDS011;22384;54.302;18.596;2023-05-01T12:15:06;9.57;;;2.05;;
36355;SDS011;22384;54.302;18.596;2023-05-01T12:17:34;3.70;;;1.83;;
36355;SDS011;22384;54.302;18.596;2023-05-01T12:20:02;5.32;;;1.60;;
36355;SDS011;22384;54.302;18.596;2023-05-01T12:22:28;3.42;;;1.52;;
36355;SDS011;22384;54.302;18.596;2023-05-01T12:24:54;6.18;;;1.60;;
36355;SDS011;22384;54.302;18.596;2023-05-01T12:27:20;5.30;;;1.70;;
36355;SDS011;22384;54.302;18.596;2023-05-01T12:29:47;4.22;;;1.70;;
36355;SDS011;22384;54.302;18.596;2023-05-01T12:32:13;3.40;;;1.63;;
36355;SDS011;22384;54.302;18.596;2023-05-01T12:34:40;4.32;;;1.70;;
36355;SDS011;22384;54.302;18.596;2023-05-01T12:37:06;4.15;;;1.90;;
36355;SDS011;22384;54.302;18.596;2023-05-01T12:39:39;5.22;;;1.77;;
36355;SDS011;22384;54.302;18.596;2023-05-01T12:42:13;5.28;;;1.77;;
36355;SDS011;22384;54.302;18.596;2023-05-01T12:44:39;4.60;;;2.00;;
36355;SDS011;22384;54.302;18.596;2023-05-01T12:47:06;7.38;;;1.95;;
36355;SDS011;22384;54.302;18.596;2023-05-01T12:49:32;4.18;;;2.03;;
36355;SDS011;22384;54.302;18.596;2023-05-01T12:52:01;4.15;;;2.42;;
36355;SDS011;22384;54.302;18.596;2023-05-01T12:54:31;5.78;;;1.77;;
36355;SDS011;22384;54.302;18.596;2023-05-01T12:59:56;4.47;;;1.58;;
36355;SDS011;22384;54.302;18.596;2023-05-01T13:02:27;4.28;;;2.00;;
36355;SDS011;22384;54.302;18.596;2023-05-01T13:05:03;3.92;;;1.77;;
36355;SDS011;22384;54.302;18.596;2023-05-01T13:07:30;5.93;;;1.98;;
36355;SDS011;22384;54.302;18.596;2023-05-01T13:09:57;5.95;;;2.42;;
36355;SDS011;22384;54.302;18.596;2023-05-01T13:12:27;4.45;;;1.83;;
36355;SDS011;22384;54.302;18.596;2023-05-01T13:14:53;3.28;;;1.95;;
36355;SDS011;22384;54.302;18.596;2023-05-01T13:17:29;3.85;;;2.30;;
36355;SDS011;22384;54.302;18.596;2023-05-01T13:19:56;8.65;;;2.28;;
36355;SDS011;22384;54.302;18.596;2023-05-01T13:22:35;4.30;;;1.80;;
36355;SDS011;22384;54.302;18.596;2023-05-01T13:25:03;3.88;;;1.80;;
36355;SDS011;22384;54.302;18.596;2023-05-01T13:27:29;4.53;;;2.05;;
36355;SDS011;22384;54.302;18.596;2023-05-01T13:29:55;3.22;;;1.75;;
36355;SDS011;22384;54.302;18.596;2023-05-01T13:32:25;5.00;;;2.03;;
36355;SDS011;22384;54.302;18.596;2023-05-01T13:34:51;4.97;;;1.73;;
36355;SDS011;22384;54.302;18.596;2023-05-01T13:37:18;5.07;;;1.70;;
36355;SDS011;22384;54.302;18.596;2023-05-01T13:39:45;6.30;;;2.00;;
36355;SDS011;22384;54.302;18.596;2023-05-01T13:42:12;2.88;;;1.70;;
36355;SDS011;22384;54.302;18.596;2023-05-01T13:44:42;3.28;;;2.00;;
36355;SDS011;22384;54.302;18.596;2023-05-01T13:47:10;4.60;;;1.70;;
36355;SDS011;22384;54.302;18.596;2023-05-01T13:49:40;5.78;;;2.15;;
36355;SDS011;22384;54.302;18.596;2023-05-01T13:52:06;4.63;;;1.90;;
36355;SDS011;22384;54.302;18.596;2023-05-01T13:54:32;4.47;;;1.90;;
36355;SDS011;22384;54.302;18.596;2023-05-01T13:56:59;7.72;;;2.05;;
36355;SDS011;22384;54.302;18.596;2023-05-01T13:59:25;4.28;;;2.08;;
36355;SDS011;22384;54.302;18.596;2023-05-01T14:01:56;4.15;;;1.90;;
36355;SDS011;22384;54.302;18.596;2023-05-01T14:04:22;4.63;;;1.60;;
36355;SDS011;22384;54.302;18.596;2023-05-01T14:06:48;3.08;;;1.67;;
36355;SDS011;22384;54.302;18.596;2023-05-01T14:09:17;2.95;;;1.60;;
36355;SDS011;22384;54.302;18.596;2023-05-01T14:11:44;3.80;;;1.60;;
36355;SDS011;22384;54.302;18.596;2023-05-01T14:14:13;2.10;;;1.50;;
36355;SDS011;22384;54.302;18.596;2023-05-01T14:16:40;2.58;;;1.60;;
36355;SDS011;22384;54.302;18.596;2023-05-01T14:19:06;5.30;;;2.35;;
36355;SDS011;22384;54.302;18.596;2023-05-01T14:21:36;8.50;;;2.05;;
36355;SDS011;22384;54.302;18.596;2023-05-01T14:24:03;5.65;;;2.20;;
36355;SDS011;22384;54.302;18.596;2023-05-01T14:26:30;3.28;;;1.85;;
36355;SDS011;22384;54.302;18.596;2023-05-01T14:28:56;2.70;;;1.60;;
36355;SDS011;22384;54.302;18.596;2023-05-01T14:31:23;6.38;;;2.40;;
36355;SDS011;22384;54.302;18.596;2023-05-01T14:34:00;5.93;;;2.67;;
36355;SDS011;22384;54.302;18.596;2023-05-01T14:36:27;6.75;;;2.10;;
36355;SDS011;22384;54.302;18.596;2023-05-01T14:39:01;3.30;;;1.70;;
36355;SDS011;22384;54.302;18.596;2023-05-01T14:41:28;4.13;;;2.20;;
36355;SDS011;22384;54.302;18.596;2023-05-01T14:43:55;7.03;;;2.10;;
36355;SDS011;22384;54.302;18.596;2023-05-01T14:46:43;5.40;;;2.10;;
36355;SDS011;22384;54.302;18.596;2023-05-01T14:49:10;2.92;;;1.77;;
36355;SDS011;22384;54.302;18.596;2023-05-01T14:51:36;9.27;;;2.08;;
36355;SDS011;22384;54.302;18.596;2023-05-01T14:54:07;3.40;;;1.63;;
36355;SDS011;22384;54.302;18.596;2023-05-01T14:56:34;4.10;;;1.50;;
36355;SDS011;22384;54.302;18.596;2023-05-01T14:59:00;3.65;;;1.52;;
36355;SDS011;22384;54.302;18.596;2023-05-01T15:01:26;6.00;;;1.80;;
36355;SDS011;22384;54.302;18.596;2023-05-01T15:03:52;4.43;;;2.00;;
36355;SDS011;22384;54.302;18.596;2023-05-01T15:06:18;3.53;;;1.75;;
36355;SDS011;22384;54.302;18.596;2023-05-01T15:08:44;5.10;;;2.00;;
36355;SDS011;22384;54.302;18.596;2023-05-01T15:11:11;4.28;;;1.85;;
36355;SDS011;22384;54.302;18.596;2023-05-01T15:13:38;4.55;;;1.65;;
36355;SDS011;22384;54.302;18.596;2023-05-01T15:16:06;2.38;;;1.70;;